sensor_id;sensor_type;location;lat;lon;timestamp;temperature;humidity
28069;DHT22;15382;47.578;8.086;2022-09-29T00:00:36;8.80;99.90
28069;DHT22;15382;47.578;8.086;2022-09-29T00:10:39;8.70;99.90
28069;DHT22;15382;47.578;8.086;2022-09-29T00:20:41;8.70;99.90
28069;DHT22;15382;47.578;8.086;2022-09-29T00:30:41;8.70;99.90
28069;DHT22;15382;47.578;8.086;2022-09-29T00:40:42;8.80;99.90
28069;DHT22;15382;47.578;8.086;2022-09-29T00:50:49;8.70;99.90
28069;DHT22;15382;47.578;8.086;2022-09-29T01:00:51;8.70;99.90
28069;DHT22;15382;47.578;8.086;2022-09-29T01:10:52;8.80;99.90
28069;DHT22;15382;47.578;8.086;2022-09-29T01:42:02;8.80;99.90
28069;DHT22;15382;47.578;8.086;2022-09-29T01:52:16;8.80;99.90
28069;DHT22;15382;47.578;8.086;2022-09-29T02:12:40;8.90;99.90
28069;DHT22;15382;47.578;8.086;2022-09-29T02:22:41;8.90;99.90
28069;DHT22;15382;47.578;8.086;2022-09-29T02:32:43;8.80;99.90
28069;DHT22;15382;47.578;8.086;2022-09-29T02:53:00;8.70;99.90
28069;DHT22;15382;47.578;8.086;2022-09-29T03:03:04;8.70;99.90
28069;DHT22;15382;47.578;8.086;2022-09-29T03:13:05;8.70;99.90
28069;DHT22;15382;47.578;8.086;2022-09-29T03:23:06;8.70;99.90
28069;DHT22;15382;47.578;8.086;2022-09-29T03:33:06;8.70;99.90
28069;DHT22;15382;47.578;8.086;2022-09-29T03:43:07;8.70;99.90
28069;DHT22;15382;47.578;8.086;2022-09-29T03:53:08;8.60;99.90
28069;DHT22;15382;47.578;8.086;2022-09-29T04:03:09;8.60;99.90
28069;DHT22;15382;47.578;8.086;2022-09-29T04:13:10;8.60;99.90
28069;DHT22;15382;47.578;8.086;2022-09-29T04:23:10;8.60;99.90
28069;DHT22;15382;47.578;8.086;2022-09-29T04:33:12;8.60;99.90
28069;DHT22;15382;47.578;8.086;2022-09-29T04:43:12;8.60;99.90
28069;DHT22;15382;47.578;8.086;2022-09-29T04:53:13;8.50;99.90
28069;DHT22;15382;47.578;8.086;2022-09-29T05:03:14;8.50;99.90
28069;DHT22;15382;47.578;8.086;2022-09-29T05:13:15;8.50;99.90
28069;DHT22;15382;47.578;8.086;2022-09-29T05:23:16;8.50;99.90
28069;DHT22;15382;47.578;8.086;2022-09-29T05:33:17;8.50;99.90
28069;DHT22;15382;47.578;8.086;2022-09-29T05:43:18;8.50;99.90
28069;DHT22;15382;47.578;8.086;2022-09-29T05:53:19;8.50;99.90
28069;DHT22;15382;47.578;8.086;2022-09-29T06:03:20;8.50;99.90
28069;DHT22;15382;47.578;8.086;2022-09-29T06:13:21;8.50;99.90
28069;DHT22;15382;47.578;8.086;2022-09-29T06:23:21;8.50;99.90
28069;DHT22;15382;47.578;8.086;2022-09-29T06:33:22;8.60;99.90
28069;DHT22;15382;47.578;8.086;2022-09-29T06:43:23;8.70;99.90
28069;DHT22;15382;47.578;8.086;2022-09-29T06:53:24;8.80;99.90
28069;DHT22;15382;47.578;8.086;2022-09-29T07:03:25;8.90;99.90
28069;DHT22;15382;47.578;8.086;2022-09-29T07:13:26;8.90;99.90
28069;DHT22;15382;47.578;8.086;2022-09-29T07:23:27;9.00;99.90
28069;DHT22;15382;47.578;8.086;2022-09-29T07:33:29;9.40;99.90
28069;DHT22;15382;47.578;8.086;2022-09-29T07:43:30;9.50;99.90
28069;DHT22;15382;47.578;8.086;2022-09-29T07:53:32;9.70;99.90
28069;DHT22;15382;47.578;8.086;2022-09-29T08:03:33;9.70;99.90
28069;DHT22;15382;47.578;8.086;2022-09-29T08:13:34;9.70;99.90
28069;DHT22;15382;47.578;8.086;2022-09-29T08:23:38;9.70;99.90
28069;DHT22;15382;47.578;8.086;2022-09-29T08:33:39;9.70;99.90
28069;DHT22;15382;47.578;8.086;2022-09-29T08:43:42;9.90;99.90
28069;DHT22;15382;47.578;8.086;2022-09-29T08:53:46;10.20;99.90
28069;DHT22;15382;47.578;8.086;2022-09-29T09:04:31;10.30;99.90
28069;DHT22;15382;47.578;8.086;2022-09-29T09:35:37;10.80;99.90
28069;DHT22;15382;47.578;8.086;2022-09-29T10:06:12;11.30;99.90
28069;DHT22;15382;47.578;8.086;2022-09-29T10:16:21;11.40;99.90
28069;DHT22;15382;47.578;8.086;2022-09-29T10:36:33;12.10;99.90
28069;DHT22;15382;47.578;8.086;2022-09-29T10:46:52;11.90;99.90
28069;DHT22;15382;47.578;8.086;2022-09-29T10:56:56;12.10;99.90
28069;DHT22;15382;47.578;8.086;2022-09-29T11:07:08;12.20;99.90
28069;DHT22;15382;47.578;8.086;2022-09-29T11:17:30;12.90;99.90
28069;DHT22;15382;47.578;8.086;2022-09-29T12:09:19;15.00;99.90
28069;DHT22;15382;47.578;8.086;2022-09-29T12:19:26;14.60;99.90
28069;DHT22;15382;47.578;8.086;2022-09-29T12:29:45;14.80;99.90
28069;DHT22;15382;47.578;8.086;2022-09-29T12:40:58;15.10;99.90
28069;DHT22;15382;47.578;8.086;2022-09-29T12:50:39;14.90;99.90
28069;DHT22;15382;47.578;8.086;2022-09-29T13:00:44;14.20;99.90
28069;DHT22;15382;47.578;8.086;2022-09-29T13:31:17;15.00;99.90
28069;DHT22;15382;47.578;8.086;2022-09-29T13:52:03;14.30;99.90
28069;DHT22;15382;47.578;8.086;2022-09-29T14:01:56;14.20;99.90
28069;DHT22;15382;47.578;8.086;2022-09-29T14:11:59;13.90;99.90
28069;DHT22;15382;47.578;8.086;2022-09-29T14:22:06;14.00;99.90
28069;DHT22;15382;47.578;8.086;2022-09-29T14:42:45;13.60;99.90
28069;DHT22;15382;47.578;8.086;2022-09-29T15:02:59;13.20;99.90
28069;DHT22;15382;47.578;8.086;2022-09-29T15:33:46;12.70;99.90
28069;DHT22;15382;47.578;8.086;2022-09-29T15:43:57;12.70;99.90
28069;DHT22;15382;47.578;8.086;2022-09-29T15:54:00;12.80;99.90
28069;DHT22;15382;47.578;8.086;2022-09-29T16:04:04;12.50;99.90
28069;DHT22;15382;47.578;8.086;2022-09-29T16:14:10;12.20;99.90
28069;DHT22;15382;47.578;8.086;2022-09-29T16:24:18;12.20;99.90
28069;DHT22;15382;47.578;8.086;2022-09-29T16:44:27;12.00;99.90
28069;DHT22;15382;47.578;8.086;2022-09-29T16:54:32;11.60;99.90
28069;DHT22;15382;47.578;8.086;2022-09-29T17:04:38;11.50;99.90
28069;DHT22;15382;47.578;8.086;2022-09-29T17:14:39;11.40;99.90
28069;DHT22;15382;47.578;8.086;2022-09-29T17:24:40;11.30;99.90
28069;DHT22;15382;47.578;8.086;2022-09-29T17:34:40;11.10;99.90
28069;DHT22;15382;47.578;8.086;2022-09-29T17:44:41;10.90;99.90
28069;DHT22;15382;47.578;8.086;2022-09-29T17:54:44;10.70;99.90
28069;DHT22;15382;47.578;8.086;2022-09-29T18:04:46;10.50;99.90
28069;DHT22;15382;47.578;8.086;2022-09-29T18:14:48;10.60;99.90
28069;DHT22;15382;47.578;8.086;2022-09-29T18:24:49;10.60;99.90
28069;DHT22;15382;47.578;8.086;2022-09-29T18:34:50;10.60;99.90
28069;DHT22;15382;47.578;8.086;2022-09-29T18:44:51;10.50;99.90
28069;DHT22;15382;47.578;8.086;2022-09-29T18:54:52;10.40;99.90
28069;DHT22;15382;47.578;8.086;2022-09-29T19:04:52;10.40;99.90
28069;DHT22;15382;47.578;8.086;2022-09-29T19:14:54;10.20;99.90
28069;DHT22;15382;47.578;8.086;2022-09-29T19:24:55;10.10;99.90
28069;DHT22;15382;47.578;8.086;2022-09-29T19:34:56;10.00;99.90
28069;DHT22;15382;47.578;8.086;2022-09-29T19:44:57;9.90;99.90
28069;DHT22;15382;47.578;8.086;2022-09-29T19:54:58;9.70;99.90
28069;DHT22;15382;47.578;8.086;2022-09-29T20:04:59;9.60;99.90
28069;DHT22;15382;47.578;8.086;2022-09-29T20:15:00;9.50;99.90
28069;DHT22;15382;47.578;8.086;2022-09-29T20:25:02;9.50;99.90
28069;DHT22;15382;47.578;8.086;2022-09-29T20:35:04;9.30;99.90
28069;DHT22;15382;47.578;8.086;2022-09-29T20:45:05;9.50;99.90
28069;DHT22;15382;47.578;8.086;2022-09-29T20:55:07;9.50;99.90
28069;DHT22;15382;47.578;8.086;2022-09-29T21:05:08;9.40;99.90
28069;DHT22;15382;47.578;8.086;2022-09-29T21:15:09;9.50;99.90
28069;DHT22;15382;47.578;8.086;2022-09-29T21:25:10;9.50;99.90
28069;DHT22;15382;47.578;8.086;2022-09-29T21:35:11;9.40;99.90
28069;DHT22;15382;47.578;8.086;2022-09-29T21:45:11;9.30;99.90
28069;DHT22;15382;47.578;8.086;2022-09-29T21:55:13;9.40;99.90
28069;DHT22;15382;47.578;8.086;2022-09-29T22:05:15;9.20;99.90
28069;DHT22;15382;47.578;8.086;2022-09-29T22:15:16;9.20;99.90
28069;DHT22;15382;47.578;8.086;2022-09-29T22:25:17;9.30;99.90
28069;DHT22;15382;47.578;8.086;2022-09-29T22:35:17;9.40;99.90
28069;DHT22;15382;47.578;8.086;2022-09-29T22:45:21;9.40;99.90
28069;DHT22;15382;47.578;8.086;2022-09-29T22:55:26;9.40;99.90
28069;DHT22;15382;47.578;8.086;2022-09-29T23:05:27;9.20;99.90
28069;DHT22;15382;47.578;8.086;2022-09-29T23:15:28;8.80;99.90
28069;DHT22;15382;47.578;8.086;2022-09-29T23:25:29;8.60;99.90
28069;DHT22;15382;47.578;8.086;2022-09-29T23:35:32;8.70;99.90
28069;DHT22;15382;47.578;8.086;2022-09-29T23:45:33;8.90;99.90
28069;DHT22;15382;47.578;8.086;2022-09-29T23:55:34;9.00;99.90
